Time;durP1;ratioP1;P1;durP2;ratioP2;P2;SDS_P1;SDS_P2;PMS_P1;PMS_P2;Temp;Humidity;BMP_temperature;BMP_pressure;BME280_temperature;BME280_humidity;BME280_pressure;Samples;Min_cycle;Max_cycle;Signal;HPM_P1;HPM_P2
2022/04/16 00:01:28;;;;;;;9.45;1.98;;;19.00;56.20;;;;;;6304742;22;20502;-69
2022/04/16 00:04:34;;;;;;;12.02;2.28;;;19.00;56.20;;;;;;6305577;22;20541;-70
2022/04/16 00:07:40;;;;;;;14.25;2.28;;;18.90;56.10;;;;;;6304006;22;20070;-69
2022/04/16 00:10:46;;;;;;;13.93;2.35;;;18.90;56.10;;;;;;6304177;22;20115;-70
2022/04/16 00:13:52;;;;;;;7.15;1.85;;;18.90;56.10;;;;;;6305032;22;20002;-70
2022/04/16 00:16:59;;;;;;;14.30;2.17;;;18.90;56.00;;;;;;6304714;22;20027;-70
2022/04/16 00:20:11;;;;;;;8.27;1.45;;;18.90;55.90;;;;;;6303726;22;20074;-70
2022/04/16 00:23:19;;;;;;;10.00;2.17;;;18.90;55.70;;;;;;6304580;22;20007;-70
2022/04/16 00:26:25;;;;;;;12.40;1.55;;;18.90;55.70;;;;;;6305066;22;20007;-70
2022/04/16 00:29:31;;;;;;;13.73;1.60;;;18.90;55.80;;;;;;6304167;22;20318;-70
2022/04/16 00:32:37;;;;;;;13.10;2.22;;;18.80;55.50;;;;;;6303157;22;19999;-71
2022/04/16 00:35:43;;;;;;;7.05;2.50;;;18.80;55.40;;;;;;6304842;22;20007;-71
2022/04/16 00:38:49;;;;;;;4.80;2.00;;;18.80;55.20;;;;;;6304827;22;20006;-70
2022/04/16 00:41:55;;;;;;;10.90;1.90;;;18.70;55.10;;;;;;6303368;22;19995;-70
2022/04/16 00:45:01;;;;;;;12.77;2.38;;;18.80;55.20;;;;;;6303938;22;20011;-70
2022/04/16 00:48:08;;;;;;;12.60;2.40;;;18.70;55.70;;;;;;6304750;22;20003;-69
2022/04/16 00:51:14;;;;;;;29.00;1.98;;;18.70;55.60;;;;;;6303973;22;20074;-70
2022/04/16 00:54:20;;;;;;;11.95;1.40;;;18.60;55.30;;;;;;6303561;22;20070;-70
2022/04/16 00:56:47;;;;;;;12.30;1.52;;;18.60;55.50;;;;;;6304427;22;20075;-70
2022/04/16 00:59:13;;;;;;;8.73;2.00;;;18.60;55.20;;;;;;6304132;22;20037;-70
2022/04/16 01:01:40;;;;;;;17.00;2.83;;;18.60;55.40;;;;;;6303903;22;20031;-71
2022/04/16 01:04:07;;;;;;;5.13;1.42;;;18.60;55.30;;;;;;6304584;22;20339;-70
2022/04/16 01:06:38;;;;;;;8.25;2.08;;;18.60;55.30;;;;;;6303122;22;20003;-70
2022/04/16 01:09:05;;;;;;;3.72;1.10;;;18.50;55.30;;;;;;6304621;22;20598;-69
2022/04/16 01:11:34;;;;;;;4.38;1.00;;;18.50;55.20;;;;;;6303281;22;19995;-69
2022/04/16 01:14:02;;;;;;;3.95;1.35;;;18.50;55.50;;;;;;6304427;22;19999;-69
2022/04/16 01:16:33;;;;;;;3.30;1.42;;;18.40;54.50;;;;;;6303501;22;19999;-69
2022/04/16 01:19:01;;;;;;;10.80;1.67;;;18.40;54.50;;;;;;6303951;22;20078;-70
2022/04/16 01:21:28;;;;;;;9.93;2.97;;;18.40;54.40;;;;;;6304545;22;19996;-69
2022/04/16 01:23:55;;;;;;;7.30;1.80;;;18.40;54.70;;;;;;6303169;22;20607;-69
2022/04/16 01:26:22;;;;;;;4.03;2.15;;;18.40;54.90;;;;;;6304210;22;20006;-70
2022/04/16 01:28:49;;;;;;;9.07;1.98;;;18.40;54.90;;;;;;6302785;22;20396;-70
2022/04/16 01:31:15;;;;;;;8.38;1.60;;;18.40;54.70;;;;;;6304256;22;19999;-70
2022/04/16 01:33:42;;;;;;;6.38;1.42;;;18.30;54.60;;;;;;6303350;22;20007;-71
2022/04/16 01:36:08;;;;;;;4.47;1.08;;;18.30;54.60;;;;;;6303859;22;20010;-70
2022/04/16 01:38:35;;;;;;;7.80;1.40;;;18.30;54.60;;;;;;6303981;22;19999;-70
2022/04/16 01:41:01;;;;;;;9.32;1.63;;;18.30;54.90;;;;;;6303367;22;19983;-70
2022/04/16 01:43:29;;;;;;;6.85;1.67;;;18.20;54.80;;;;;;6303562;22;20000;-70
2022/04/16 01:45:56;;;;;;;10.13;1.58;;;18.20;54.70;;;;;;6302907;22;20007;-70
2022/04/16 01:48:27;;;;;;;6.72;1.13;;;18.20;54.60;;;;;;6304560;22;20500;-70
2022/04/16 01:50:54;;;;;;;6.22;1.50;;;18.20;54.70;;;;;;6303090;22;20322;-69
2022/04/16 01:53:22;;;;;;;7.07;1.83;;;18.10;54.80;;;;;;6304039;22;20073;-69
2022/04/16 01:55:48;;;;;;;4.63;1.80;;;18.10;54.80;;;;;;6303722;22;20026;-70
2022/04/16 01:58:15;;;;;;;8.15;1.75;;;18.10;54.80;;;;;;6303232;22;20401;-70
2022/04/16 02:00:41;;;;;;;11.45;1.80;;;18.10;54.70;;;;;;6303660;22;19999;-70
2022/04/16 02:03:08;;;;;;;7.75;1.70;;;18.10;54.70;;;;;;6302708;22;20007;-70
2022/04/16 02:05:35;;;;;;;4.40;1.55;;;18.10;54.70;;;;;;6304025;22;20002;-70
2022/04/16 02:08:01;;;;;;;8.23;1.63;;;18.00;55.30;;;;;;6302662;22;20003;-70
2022/04/16 02:10:28;;;;;;;5.00;1.48;;;18.00;54.60;;;;;;6304004;22;20072;-70
2022/04/16 02:12:55;;;;;;;2.15;1.05;;;18.00;54.60;;;;;;6303449;22;20003;-70
2022/04/16 02:15:21;;;;;;;2.95;1.73;;;18.00;54.60;;;;;;6302876;22;19999;-70
2022/04/16 02:17:48;;;;;;;2.53;1.50;;;18.00;54.70;;;;;;6304031;22;20011;-70
2022/04/16 02:20:14;;;;;;;5.25;1.90;;;18.00;54.70;;;;;;6302623;22;20476;-70
2022/04/16 02:22:46;;;;;;;5.25;1.45;;;17.90;54.70;;;;;;6303818;22;20011;-70
2022/04/16 02:25:14;;;;;;;11.20;1.67;;;17.90;54.70;;;;;;6302454;22;20010;-71
2022/04/16 02:27:41;;;;;;;17.42;2.22;;;17.90;54.70;;;;;;6303656;22;20074;-70
2022/04/16 02:30:16;;;;;;;9.45;1.63;;;17.90;54.80;;;;;;6303288;22;19995;-70
2022/04/16 02:32:52;;;;;;;10.73;2.30;;;17.90;54.90;;;;;;6303048;22;19991;-70
2022/04/16 02:35:19;;;;;;;7.35;1.92;;;17.90;54.90;;;;;;6303705;22;19999;-70
2022/04/16 02:37:47;;;;;;;4.38;1.73;;;17.80;54.80;;;;;;6302401;22;20458;-70
2022/04/16 02:40:14;;;;;;;4.72;2.05;;;17.80;55.00;;;;;;6303739;22;19996;-70
2022/04/16 02:42:43;;;;;;;5.88;1.63;;;17.80;54.90;;;;;;6302326;22;20019;-70
2022/04/16 02:47:58;;;;;;;16.23;2.55;;;17.80;54.90;;;;;;6303605;22;20010;-69
2022/04/16 02:50:25;;;;;;;18.55;2.20;;;17.70;55.30;;;;;;6302416;22;19995;-70
2022/04/16 02:52:53;;;;;;;20.90;3.10;;;17.80;55.70;;;;;;6303609;22;19995;-69
2022/04/16 02:55:19;;;;;;;6.60;2.08;;;17.70;56.00;;;;;;6302193;22;20064;-70
2022/04/16 02:57:46;;;;;;;7.07;1.67;;;17.70;55.60;;;;;;6303555;22;20457;-70
2022/04/16 03:00:14;;;;;;;5.22;1.55;;;17.70;55.50;;;;;;6302063;22;20060;-70
2022/04/16 03:02:41;;;;;;;9.73;1.50;;;17.70;55.40;;;;;;6303169;22;20050;-70
2022/04/16 03:05:08;;;;;;;11.38;1.88;;;17.70;55.50;;;;;;6276212;22;20007;-70
2022/04/16 03:07:36;;;;;;;12.25;2.00;;;17.70;55.70;;;;;;6302322;22;20079;-70
2022/04/16 03:10:04;;;;;;;16.65;1.95;;;17.60;55.80;;;;;;6303579;22;20069;-70
2022/04/16 03:12:45;;;;;;;11.20;1.83;;;17.60;56.00;;;;;;6274143;22;20316;-71
2022/04/16 03:17:57;;;;;;;10.50;1.35;;;17.60;55.80;;;;;;6303437;22;20010;-70
2022/04/16 03:21:04;;;;;;;4.07;1.60;;;17.60;55.80;;;;;;6302562;22;20387;-70
2022/04/16 03:24:10;;;;;;;5.50;1.40;;;17.60;55.70;;;;;;6303663;22;20034;-70
2022/04/16 03:27:16;;;;;;;5.35;0.98;;;17.60;55.70;;;;;;6302608;22;20318;-69
2022/04/16 03:30:23;;;;;;;5.78;1.25;;;17.50;55.60;;;;;;6301767;22;20003;-70
2022/04/16 03:33:31;;;;;;;2.17;1.10;;;17.50;55.50;;;;;;6303157;22;20478;-69
2022/04/16 03:36:38;;;;;;;11.15;1.88;;;17.50;55.30;;;;;;6302843;22;20042;-70
2022/04/16 03:39:44;;;;;;;7.97;2.63;;;17.50;55.40;;;;;;6301979;22;20000;-70
2022/04/16 03:42:50;;;;;;;7.13;1.88;;;17.50;55.40;;;;;;6302328;22;20010;-70
2022/04/16 03:45:58;;;;;;;4.57;1.27;;;17.40;55.40;;;;;;6303226;22;20148;-69
2022/04/16 03:49:04;;;;;;;3.45;1.13;;;17.40;55.30;;;;;;6302930;22;20010;-69
2022/04/16 03:52:10;;;;;;;6.82;2.15;;;17.40;55.40;;;;;;6301583;22;20407;-69
2022/04/16 04:02:04;;;;;;;13.90;4.35;;;17.30;55.50;;;;;;6302492;22;20069;-70
2022/04/16 04:05:26;;;;;;;8.45;3.97;;;17.30;56.00;;;;;;6300411;22;20313;-70
2022/04/16 04:08:33;;;;;;;10.70;5.57;;;17.20;56.20;;;;;;6304522;22;20044;-70
2022/04/16 04:11:39;;;;;;;11.80;7.35;;;17.20;56.30;;;;;;6305073;22;19999;-70
2022/04/16 04:14:46;;;;;;;9.02;7.10;;;17.30;56.50;;;;;;6304044;22;20540;-70
2022/04/16 04:17:52;;;;;;;13.88;6.47;;;17.30;56.50;;;;;;6303659;22;20003;-70
2022/04/16 04:20:58;;;;;;;8.55;4.68;;;17.20;56.50;;;;;;6304949;22;20007;-70
2022/04/16 04:24:04;;;;;;;10.35;4.18;;;17.20;56.70;;;;;;6304783;22;20326;-69
2022/04/16 04:27:10;;;;;;;9.55;2.75;;;17.20;57.30;;;;;;6303429;22;20007;-70
2022/04/16 04:29:37;;;;;;;9.88;2.05;;;17.20;56.80;;;;;;6302577;22;19999;-70
2022/04/16 04:32:05;;;;;;;8.73;1.50;;;17.20;56.80;;;;;;6305375;22;19999;-70
2022/04/16 04:34:32;;;;;;;7.95;1.55;;;17.20;56.70;;;;;;6303602;22;20373;-70
2022/04/16 04:36:58;;;;;;;5.30;1.80;;;17.10;56.70;;;;;;6304820;22;20465;-70
2022/04/16 04:39:25;;;;;;;8.73;1.85;;;17.20;56.70;;;;;;6304237;22;19999;-70
2022/04/16 04:41:51;;;;;;;4.65;1.40;;;17.10;56.70;;;;;;6304168;22;20086;-70
2022/04/16 04:44:18;;;;;;;7.15;1.48;;;17.10;56.70;;;;;;6303171;22;20011;-70
2022/04/16 04:46:44;;;;;;;27.77;3.42;;;17.10;56.60;;;;;;6304306;22;19996;-70
2022/04/16 04:49:11;;;;;;;12.85;2.90;;;17.10;56.70;;;;;;6304471;22;20006;-70
2022/04/16 04:51:39;;;;;;;15.35;2.55;;;17.10;57.00;;;;;;6303602;22;20006;-70
2022/04/16 04:54:07;;;;;;;15.18;2.40;;;17.10;57.00;;;;;;6304969;22;20007;-69
2022/04/16 04:56:37;;;;;;;22.15;2.67;;;17.10;57.30;;;;;;6303350;22;20004;-70
2022/04/16 04:59:04;;;;;;;11.68;1.77;;;17.10;57.50;;;;;;6303943;22;20031;-70
2022/04/16 05:01:31;;;;;;;6.68;2.13;;;17.10;57.60;;;;;;6302931;22;20065;-70
2022/04/16 05:03:57;;;;;;;6.68;1.70;;;17.00;58.30;;;;;;6304168;22;20507;-71
2022/04/16 05:06:24;;;;;;;10.70;1.83;;;17.10;57.60;;;;;;6276662;22;20545;-70
2022/04/16 05:09:30;;;;;;;27.38;5.13;;;17.10;58.40;;;;;;6302997;22;20081;-70
2022/04/16 05:12:36;;;;;;;17.67;5.38;;;17.00;58.20;;;;;;6304720;22;20010;-69
2022/04/16 05:15:42;;;;;;;20.10;4.13;;;17.10;59.30;;;;;;6304223;22;20003;-70
2022/04/16 05:18:48;;;;;;;7.72;2.55;;;17.00;59.30;;;;;;6303063;22;20002;-70
2022/04/16 05:21:54;;;;;;;20.63;4.13;;;17.00;58.80;;;;;;6304188;22;20000;-70
2022/04/16 05:25:00;;;;;;;8.77;2.40;;;17.00;58.80;;;;;;6303846;22;20061;-71
2022/04/16 05:28:06;;;;;;;30.95;4.38;;;17.00;59.00;;;;;;6302867;22;20334;-71
2022/04/16 05:31:13;;;;;;;29.58;3.25;;;17.00;59.20;;;;;;6302525;22;20538;-70
2022/04/16 05:34:19;;;;;;;16.52;3.10;;;17.00;59.20;;;;;;6304249;22;20370;-70
2022/04/16 05:36:48;;;;;;;9.60;2.35;;;17.00;59.40;;;;;;6304119;22;20453;-70
2022/04/16 05:39:15;;;;;;;8.93;2.78;;;17.00;59.20;;;;;;6303112;22;20057;-70
2022/04/16 05:41:42;;;;;;;16.77;2.38;;;17.00;59.20;;;;;;6303445;22;19999;-71
2022/04/16 05:44:08;;;;;;;9.10;3.15;;;17.00;58.90;;;;;;6302386;22;20050;-69
2022/04/16 05:46:35;;;;;;;12.23;2.90;;;17.00;58.90;;;;;;6299741;22;20068;-70
2022/04/16 05:49:01;;;;;;;22.88;4.20;;;17.10;58.80;;;;;;6299157;22;20345;-70
2022/04/16 05:51:28;;;;;;;15.90;3.13;;;17.00;58.50;;;;;;6303177;22;20422;-71
2022/04/16 05:53:55;;;;;;;14.95;5.68;;;17.00;58.30;;;;;;6302460;22;20469;-70
2022/04/16 05:56:22;;;;;;;16.85;2.97;;;17.00;58.40;;;;;;6301828;22;20072;-70
2022/04/16 05:58:48;;;;;;;25.63;12.65;;;17.00;59.00;;;;;;6303464;22;20034;-70
2022/04/16 06:01:15;;;;;;;22.63;16.38;;;17.00;58.80;;;;;;6301577;22;20014;-70
2022/04/16 06:03:41;;;;;;;19.15;10.07;;;17.00;58.70;;;;;;6303083;22;20378;-69
2022/04/16 06:06:09;;;;;;;17.48;5.30;;;17.00;58.80;;;;;;6301726;22;19995;-70
2022/04/16 06:08:36;;;;;;;13.27;4.25;;;17.10;59.10;;;;;;6303355;22;20026;-69
2022/04/16 06:11:04;;;;;;;8.82;2.72;;;17.10;59.40;;;;;;6302227;22;20461;-69
2022/04/16 06:13:31;;;;;;;9.13;4.88;;;17.10;59.30;;;;;;6275295;22;20295;-70
2022/04/16 06:15:58;;;;;;;20.42;7.82;;;17.10;59.40;;;;;;6302001;22;19999;-70
2022/04/16 06:18:25;;;;;;;24.88;11.15;;;17.10;59.50;;;;;;6301038;22;20007;-69
2022/04/16 06:20:51;;;;;;;26.80;12.30;;;17.10;59.80;;;;;;6302784;22;20000;-69
2022/04/16 06:23:23;;;;;;;19.92;8.00;;;17.10;60.00;;;;;;6301623;22;20015;-73
2022/04/16 06:25:49;;;;;;;10.18;3.88;;;17.20;60.20;;;;;;6302649;22;20506;-69
2022/04/16 06:28:16;;;;;;;16.05;3.42;;;17.20;60.10;;;;;;6301841;22;20046;-68
2022/04/16 06:30:42;;;;;;;7.18;2.85;;;17.30;60.20;;;;;;6302562;22;20003;-68
2022/04/16 06:33:09;;;;;;;10.73;2.25;;;17.30;59.90;;;;;;6302788;22;20065;-69
2022/04/16 06:36:15;;;;;;;13.68;3.08;;;17.30;59.90;;;;;;6300986;22;20121;-69
2022/04/16 06:39:21;;;;;;;8.55;2.40;;;17.40;59.90;;;;;;6303249;22;20000;-69
2022/04/16 06:42:27;;;;;;;11.35;2.17;;;17.40;60.20;;;;;;6302760;22;20010;-70
2022/04/16 06:45:33;;;;;;;5.55;1.50;;;17.40;60.10;;;;;;6301556;22;20011;-68
2022/04/16 06:48:39;;;;;;;9.88;3.13;;;17.40;59.80;;;;;;6302388;22;20014;-68
2022/04/16 06:51:45;;;;;;;3.67;1.17;;;17.50;59.50;;;;;;6302653;22;20460;-69
2022/04/16 06:54:51;;;;;;;4.90;1.05;;;17.50;59.20;;;;;;6302304;22;20323;-68
2022/04/16 06:57:57;;;;;;;4.90;1.40;;;17.60;59.10;;;;;;6301506;22;20082;-69
2022/04/16 07:01:03;;;;;;;3.78;1.67;;;17.70;58.90;;;;;;6302511;22;20019;-68
2022/04/16 07:04:11;;;;;;;5.78;1.38;;;17.70;58.80;;;;;;6302617;22;20011;-69
2022/04/16 07:07:17;;;;;;;7.25;1.67;;;17.70;58.70;;;;;;6301509;22;19996;-69
2022/04/16 07:10:23;;;;;;;5.18;1.10;;;17.80;58.50;;;;;;6302047;22;20003;-68
2022/04/16 07:13:29;;;;;;;8.27;2.05;;;17.90;58.20;;;;;;6302527;22;20011;-69
2022/04/16 07:16:35;;;;;;;4.90;1.70;;;17.90;58.00;;;;;;6301840;22;20026;-69
2022/04/16 07:19:41;;;;;;;4.97;1.75;;;18.00;58.00;;;;;;6301194;22;20070;-69
2022/04/16 07:22:47;;;;;;;3.28;2.00;;;18.00;57.40;;;;;;6302722;22;20425;-69
2022/04/16 07:25:53;;;;;;;2.72;1.35;;;18.10;57.20;;;;;;6302528;22;20041;-69
2022/04/16 07:28:59;;;;;;;7.68;1.27;;;18.10;56.80;;;;;;6301234;22;20049;-69
2022/04/16 07:32:05;;;;;;;5.72;1.35;;;18.20;56.30;;;;;;6301890;22;20000;-70
2022/04/16 07:35:12;;;;;;;4.53;1.58;;;18.20;55.90;;;;;;6302510;22;20066;-70
2022/04/16 07:38:18;;;;;;;7.90;1.48;;;18.30;55.60;;;;;;6301802;22;19995;-69
2022/04/16 07:41:24;;;;;;;8.20;1.77;;;18.40;55.30;;;;;;6302341;22;20090;-69
2022/04/16 07:44:30;;;;;;;6.82;1.45;;;18.40;54.90;;;;;;6305246;22;20048;-69
2022/04/16 07:47:36;;;;;;;12.57;2.15;;;18.50;54.10;;;;;;6304991;22;20074;-69
2022/04/16 07:50:42;;;;;;;3.25;1.45;;;18.50;53.80;;;;;;6303439;22;20366;-69
2022/04/16 07:53:48;;;;;;;11.90;2.17;;;18.60;53.40;;;;;;6303989;22;20003;-69
2022/04/16 07:56:54;;;;;;;7.32;2.00;;;18.60;53.10;;;;;;6304277;22;20091;-69
2022/04/16 08:00:00;;;;;;;5.53;1.35;;;18.60;52.90;;;;;;6304082;22;20579;-69
2022/04/16 08:03:06;;;;;;;2.30;1.15;;;18.70;52.90;;;;;;6272169;22;20042;-70
2022/04/16 08:06:12;;;;;;;4.40;1.58;;;18.70;52.50;;;;;;6273855;22;20012;-70
2022/04/16 08:09:18;;;;;;;13.82;1.95;;;18.80;51.80;;;;;;6273896;22;20079;-70
2022/04/16 08:12:27;;;;;;;9.68;2.65;;;18.80;51.70;;;;;;6272150;22;20118;-70
2022/04/16 08:15:33;;;;;;;5.75;1.75;;;18.90;51.80;;;;;;6273101;22;20007;-70
2022/04/16 08:18:39;;;;;;;8.20;1.65;;;18.90;51.40;;;;;;6273442;22;19996;-70
2022/04/16 08:21:45;;;;;;;6.53;1.98;;;19.00;50.90;;;;;;6273140;22;20034;-70
2022/04/16 08:28:16;;;;;;;6.63;1.92;;;19.10;51.30;;;;;;6273437;22;20014;-70
2022/04/16 08:31:22;;;;;;;5.18;1.65;;;19.20;51.30;;;;;;6273182;22;20002;-69
2022/04/16 08:34:28;;;;;;;5.82;1.95;;;19.20;51.20;;;;;;6272162;22;20034;-69
2022/04/16 08:37:34;;;;;;;3.63;1.98;;;19.30;51.10;;;;;;6272021;22;20585;-70
2022/04/16 08:40:40;;;;;;;7.47;2.15;;;19.30;51.40;;;;;;6273258;22;20004;-70
2022/04/16 08:43:46;;;;;;;6.80;2.95;;;19.40;51.80;;;;;;6272751;22;20068;-69
2022/04/16 08:46:52;;;;;;;6.43;1.83;;;19.50;51.20;;;;;;6271801;22;20371;-70
2022/04/16 08:49:58;;;;;;;5.07;1.83;;;19.50;50.80;;;;;;6272640;22;20454;-70
2022/04/16 08:53:04;;;;;;;11.60;1.85;;;19.70;50.50;;;;;;6272607;22;20004;-69
2022/04/16 08:56:10;;;;;;;27.25;3.03;;;19.70;50.30;;;;;;6272589;22;20078;-69
2022/04/16 08:59:17;;;;;;;10.38;1.98;;;19.80;50.20;;;;;;6271818;22;20000;-69
2022/04/16 09:02:23;;;;;;;5.45;1.83;;;19.90;49.70;;;;;;6299002;22;20640;-69
2022/04/16 09:05:29;;;;;;;6.68;1.85;;;19.90;48.90;;;;;;6303391;22;20342;-70
2022/04/16 09:08:35;;;;;;;12.57;1.70;;;20.00;48.10;;;;;;6302221;22;20003;-69
2022/04/16 09:11:44;;;;;;;4.90;1.42;;;20.00;47.40;;;;;;6303327;22;20384;-69
2022/04/16 09:14:56;;;;;;;6.00;1.95;;;20.10;45.80;;;;;;6303729;22;20008;-70
2022/04/16 09:18:02;;;;;;;4.35;1.30;;;20.10;45.80;;;;;;6303082;22;20023;-70
2022/04/16 09:21:11;;;;;;;5.03;1.15;;;20.20;45.70;;;;;;6302243;22;20340;-70
2022/04/16 09:24:17;;;;;;;5.72;1.30;;;20.20;45.20;;;;;;6303532;22;20011;-70
2022/04/16 09:27:23;;;;;;;2.28;0.82;;;20.30;45.20;;;;;;6303520;22;20052;-70
2022/04/16 09:30:31;;;;;;;2.05;1.00;;;20.40;43.60;;;;;;6300973;22;20007;-69
2022/04/16 09:33:37;;;;;;;4.72;1.77;;;20.40;43.70;;;;;;6302853;22;20038;-70
2022/04/16 09:36:44;;;;;;;4.15;1.10;;;20.50;43.80;;;;;;6303604;22;20423;-69
2022/04/16 09:39:50;;;;;;;6.90;1.08;;;20.50;43.90;;;;;;6302969;22;20008;-70
2022/04/16 09:43:11;;;;;;;2.75;0.93;;;20.60;43.40;;;;;;6302122;22;20624;-69
2022/04/16 09:46:06;;;;;;;2.60;1.02;;;20.80;42.90;;;;;;6302723;22;20011;-69
2022/04/16 09:49:12;;;;;;;9.23;1.58;;;20.80;42.90;;;;;;6303558;22;20031;-69
2022/04/16 09:52:18;;;;;;;4.80;0.85;;;20.90;42.80;;;;;;6301027;22;20003;-69
2022/04/16 09:55:25;;;;;;;5.05;2.33;;;21.00;41.70;;;;;;6301922;22;20003;-69
2022/04/16 09:58:40;;;;;;;3.65;0.80;;;21.10;41.90;;;;;;6303509;22;20003;-69
2022/04/16 10:01:49;;;;;;;2.73;0.53;;;21.10;42.10;;;;;;6301894;22;20349;-69
2022/04/16 10:04:55;;;;;;;3.45;0.80;;;21.20;40.60;;;;;;6301927;22;20057;-69
2022/04/16 10:08:01;;;;;;;5.32;0.90;;;21.30;40.50;;;;;;6302637;22;20049;-69
2022/04/16 10:11:08;;;;;;;2.00;0.90;;;21.40;40.80;;;;;;6303362;22;20003;-69
2022/04/16 10:14:14;;;;;;;46.33;4.68;;;21.50;40.30;;;;;;6302566;22;20002;-70
2022/04/16 10:17:19;;;;;;;13.43;1.58;;;21.50;39.50;;;;;;6300471;22;20094;-70
2022/04/16 10:19:48;;;;;;;7.45;1.63;;;21.60;39.40;;;;;;6303111;22;19999;-70
2022/04/16 10:22:25;;;;;;;8.45;1.65;;;21.70;39.20;;;;;;6302328;22;20011;-70
2022/04/16 10:24:58;;;;;;;3.83;1.40;;;21.80;39.50;;;;;;6302583;22;20014;-70
2022/04/16 10:27:29;;;;;;;11.15;1.67;;;21.90;39.70;;;;;;6303199;22;20070;-70
2022/04/16 10:30:07;;;;;;;7.93;1.80;;;21.90;40.00;;;;;;6301787;22;20010;-70
2022/04/16 10:32:42;;;;;;;5.35;1.33;;;22.00;40.20;;;;;;6303024;22;20033;-70
2022/04/16 10:35:14;;;;;;;6.70;1.10;;;22.10;40.00;;;;;;6302567;22;20007;-69
2022/04/16 10:37:43;;;;;;;4.13;0.70;;;22.10;40.00;;;;;;6302343;22;19995;-69
2022/04/16 10:40:25;;;;;;;4.93;1.00;;;22.20;39.70;;;;;;6302969;22;20078;-69
2022/04/16 10:43:01;;;;;;;2.88;1.00;;;22.20;39.20;;;;;;6301229;22;20003;-69
2022/04/16 10:45:34;;;;;;;3.33;1.05;;;22.30;39.10;;;;;;6302918;22;20003;-70
2022/04/16 10:48:02;;;;;;;5.78;1.23;;;22.30;39.50;;;;;;6301565;22;20003;-69
2022/04/16 10:50:31;;;;;;;5.20;1.50;;;22.40;39.00;;;;;;6302516;22;19996;-69
2022/04/16 10:53:01;;;;;;;5.47;1.05;;;22.40;38.60;;;;;;6301911;22;20003;-68
2022/04/16 10:55:32;;;;;;;8.85;1.55;;;22.50;38.40;;;;;;6301287;22;19999;-70
2022/04/16 10:58:03;;;;;;;9.75;1.70;;;22.60;39.20;;;;;;6303357;22;20027;-69
2022/04/16 11:00:37;;;;;;;11.10;4.32;;;22.60;39.10;;;;;;6301129;22;20023;-69
2022/04/16 11:03:30;;;;;;;11.93;4.78;;;22.60;39.10;;;;;;6301554;22;20015;-69
2022/04/16 11:06:04;;;;;;;6.22;2.22;;;22.60;39.00;;;;;;6300169;22;20004;-68
2022/04/16 11:08:35;;;;;;;4.63;2.08;;;22.60;39.20;;;;;;6300199;22;19999;-69
2022/04/16 11:11:02;;;;;;;7.85;1.63;;;22.70;39.20;;;;;;6301353;22;20031;-69
2022/04/16 11:13:33;;;;;;;3.53;1.17;;;22.80;39.20;;;;;;6300222;22;19995;-67
2022/04/16 11:16:01;;;;;;;7.38;1.15;;;22.80;39.20;;;;;;6300845;22;20096;-67
2022/04/16 11:18:50;;;;;;;8.85;2.70;;;22.80;38.70;;;;;;6299300;22;20013;-67
2022/04/16 11:21:25;;;;;;;6.05;2.95;;;22.90;38.70;;;;;;6300722;22;20003;-68
2022/04/16 11:23:53;;;;;;;5.22;2.45;;;22.90;38.60;;;;;;6301307;22;20311;-67
2022/04/16 11:34:55;;;;;;;11.75;3.63;;;23.00;38.30;;;;;;6299852;22;20033;-67
2022/04/16 11:37:22;;;;;;;13.27;7.47;;;23.10;38.10;;;;;;6301672;22;20011;-68
2022/04/16 11:40:00;;;;;;;9.00;3.55;;;23.20;38.00;;;;;;6299507;22;20003;-65
2022/04/16 11:42:26;;;;;;;6.22;2.40;;;23.20;37.70;;;;;;6300590;22;20003;-65
2022/04/16 11:44:53;;;;;;;5.43;1.30;;;23.30;37.40;;;;;;6298301;22;20468;-68
2022/04/16 11:47:24;;;;;;;8.10;1.58;;;23.30;37.20;;;;;;6297555;22;20004;-67
2022/04/16 11:49:53;;;;;;;8.15;1.88;;;23.40;37.10;;;;;;6300648;22;20615;-69
2022/04/16 11:52:29;;;;;;;4.53;2.42;;;23.40;36.90;;;;;;6300849;22;20003;-68
2022/04/16 11:55:23;;;;;;;6.25;2.17;;;23.50;36.70;;;;;;6274534;22;20421;-69
2022/04/16 11:57:53;;;;;;;5.45;1.52;;;23.50;36.60;;;;;;6300467;22;19999;-68
2022/04/16 12:00:22;;;;;;;5.85;1.70;;;23.60;36.20;;;;;;6297957;22;20046;-69
2022/04/16 12:02:55;;;;;;;8.80;1.42;;;23.70;35.90;;;;;;6300406;22;20082;-69
2022/04/16 12:05:29;;;;;;;4.05;1.38;;;23.70;35.80;;;;;;6300309;22;20007;-69
2022/04/16 12:07:56;;;;;;;19.00;1.95;;;23.70;35.90;;;;;;6302290;22;20017;-67
2022/04/16 12:10:24;;;;;;;12.57;1.60;;;23.80;36.10;;;;;;6300734;22;20031;-67
2022/04/16 12:12:53;;;;;;;3.15;1.45;;;23.90;36.00;;;;;;6301982;22;20011;-66
2022/04/16 12:15:24;;;;;;;2.42;0.85;;;24.20;36.20;;;;;;6301885;22;20022;-67
2022/04/16 12:17:51;;;;;;;9.15;1.13;;;24.40;36.10;;;;;;6300973;22;20018;-67
2022/04/16 12:20:20;;;;;;;6.03;3.10;;;24.60;35.70;;;;;;6301986;22;20005;-68
2022/04/16 12:22:57;;;;;;;14.25;5.00;;;24.80;35.30;;;;;;6300101;22;20003;-68
2022/04/16 12:25:25;;;;;;;11.27;3.47;;;24.90;35.10;;;;;;6299414;22;20362;-68
2022/04/16 12:27:53;;;;;;;4.32;1.50;;;25.00;34.40;;;;;;6300536;22;20003;-67
2022/04/16 12:30:25;;;;;;;6.40;1.23;;;25.10;34.40;;;;;;6303420;22;20496;-68
2022/04/16 12:33:13;;;;;;;8.10;1.20;;;25.20;34.80;;;;;;6303587;22;20003;-67
2022/04/16 12:35:47;;;;;;;11.25;1.48;;;25.20;34.90;;;;;;6302162;22;20042;-67
2022/04/16 12:38:17;;;;;;;5.55;1.20;;;25.30;35.10;;;;;;6303924;22;20010;-67
2022/04/16 12:40:45;;;;;;;12.40;3.88;;;25.30;34.80;;;;;;6301955;22;20322;-67
2022/04/16 12:43:12;;;;;;;17.17;4.35;;;25.30;35.90;;;;;;6303715;22;20007;-70
2022/04/16 12:45:38;;;;;;;6.32;2.60;;;25.20;36.00;;;;;;6273927;22;20011;-69
2022/04/16 12:48:06;;;;;;;9.18;1.92;;;25.10;36.50;;;;;;6298714;22;20006;-68
2022/04/16 12:50:33;;;;;;;6.20;2.58;;;24.90;36.70;;;;;;6302232;22;20007;-69
2022/04/16 12:53:00;;;;;;;7.57;1.83;;;24.80;36.80;;;;;;6299763;22;20020;-69
2022/04/16 12:55:28;;;;;;;4.30;1.40;;;24.70;36.70;;;;;;6301505;22;20043;-68
2022/04/16 12:57:56;;;;;;;33.00;8.95;;;24.70;36.90;;;;;;6298886;22;20099;-67
2022/04/16 13:00:23;;;;;;;19.33;6.05;;;24.60;37.00;;;;;;6271584;22;20426;-69
2022/04/16 13:02:49;;;;;;;9.95;2.13;;;24.60;37.00;;;;;;6299179;22;20007;-69
2022/04/16 13:05:18;;;;;;;10.43;1.92;;;24.50;37.30;;;;;;6300378;22;20014;-68
2022/04/16 13:07:46;;;;;;;20.35;7.07;;;24.50;37.10;;;;;;6301658;22;20476;-67
2022/04/16 13:10:52;;;;;;;7.78;3.22;;;24.50;36.90;;;;;;6301560;22;20015;-68
2022/04/16 13:13:18;;;;;;;;;;;24.50;36.90;;;;;;6301707;22;20094;-67
2022/04/16 13:16:24;;;;;;;5.90;2.15;;;24.50;36.40;;;;;;6301087;22;19979;-68
2022/04/16 13:19:27;;;;;;;4.32;1.33;;;24.50;36.30;;;;;;6301059;22;20064;-68
2022/04/16 13:22:33;;;;;;;4.03;1.17;;;24.50;36.40;;;;;;6302623;22;20088;-67
2022/04/16 13:25:19;;;;;;;;;;;24.50;36.10;;;;;;6304264;22;20052;-67
2022/04/16 13:28:27;;;;;;;5.13;2.40;;;24.50;36.40;;;;;;6302213;22;19961;-68
2022/04/16 13:31:33;;;;;;;7.38;1.80;;;24.50;36.50;;;;;;6302756;22;20011;-67
2022/04/16 13:34:19;;;;;;;;;;;24.50;36.60;;;;;;6304076;22;20043;-68
2022/04/16 13:36:45;;;;;;;2.75;1.40;;;24.40;36.60;;;;;;6301930;22;20376;-67
2022/04/16 13:43:16;;;;;;;6.25;1.70;;;24.50;37.00;;;;;;6299336;22;20069;-68
2022/04/16 13:46:22;;;;;;;39.10;10.32;;;24.50;37.00;;;;;;6299198;22;20107;-67
2022/04/16 13:49:08;;;;;;;;;;;24.50;36.90;;;;;;6299573;22;20048;-71
2022/04/16 13:52:14;;;;;;;5.55;1.90;;;24.50;37.00;;;;;;6300054;22;19902;-69
2022/04/16 13:54:59;;;;;;;;;;;24.50;37.00;;;;;;6299748;22;20035;-70
2022/04/16 13:57:35;;;;;;;7.15;1.60;;;24.50;36.90;;;;;;6299296;22;19905;-67
2022/04/16 14:00:01;;;;;;;8.05;2.10;;;24.50;37.00;;;;;;6272704;22;20442;-68
2022/04/16 14:03:07;;;;;;;14.45;11.50;;;24.40;37.10;;;;;;6298562;22;20003;-70
2022/04/16 14:06:02;;;;;;;7.45;3.88;;;24.40;37.40;;;;;;6299690;22;20506;-68
2022/04/16 14:09:08;;;;;;;9.35;4.28;;;24.50;37.50;;;;;;6272552;22;20006;-70
2022/04/16 14:11:54;;;;;;;;;;;24.40;37.90;;;;;;6297679;22;20006;-68
2022/04/16 14:15:00;;;;;;;5.82;2.65;;;24.40;37.40;;;;;;6296990;22;19913;-70
2022/04/16 14:18:06;;;;;;;8.35;4.82;;;24.30;37.40;;;;;;6296964;22;20418;-67
2022/04/16 14:20:52;;;;;;;;;;;24.30;37.10;;;;;;6296460;22;20504;-68
2022/04/16 14:23:58;;;;;;;10.82;7.88;;;24.30;37.00;;;;;;6295747;22;19926;-68
2022/04/16 14:26:46;;;;;;;;;;;24.30;36.80;;;;;;6299377;22;20026;-68
2022/04/16 14:29:53;;;;;;;5.50;2.30;;;24.30;36.60;;;;;;6301520;22;19899;-67
2022/04/16 14:32:40;;;;;;;4.65;1.67;;;24.30;36.90;;;;;;6301611;22;20004;-68
2022/04/16 14:35:13;;;;;;;7.75;2.00;;;24.30;36.60;;;;;;6276815;22;20022;-68
2022/04/16 14:37:39;;;;;;;9.88;1.60;;;24.20;36.70;;;;;;6275164;22;20008;-69
2022/04/16 14:40:08;;;;;;;6.05;1.45;;;24.20;37.50;;;;;;6301480;22;20004;-69
2022/04/16 14:42:35;;;;;;;11.63;2.22;;;24.20;37.30;;;;;;6274234;22;20015;-70
2022/04/16 14:45:44;;;;;;;4.15;2.58;;;24.30;37.40;;;;;;6299678;22;20003;-68
2022/04/16 14:48:53;;;;;;;28.75;4.80;;;24.30;37.70;;;;;;6301377;22;19999;-68